Time,TemperatureF,DewpointF,PressureIn,WindDirection,WindDirectionDegrees,WindSpeedMPH,WindSpeedGustMPH,Humidity,HourlyPrecipIn,Conditions,Clouds,dailyrainin,SoftwareType,DateUTC
2013-06-02 00:01:00,74.7,65.1,29.41,WSW,240,4.6,4.6,72,0.00,CLR,,0.00,WeatherDisplay:10.37,2013-06-02 04:01:00,
2013-06-02 00:06:00,74.7,65.1,29.41,WSW,243,5.8,5.8,72,0.00,CLR,,0.00,WeatherDisplay:10.37,2013-06-02 04:06:00,
2013-06-02 00:11:00,74.6,65.0,29.40,SSW,202,5.8,5.8,72,0.00,CLR,,0.00,WeatherDisplay:10.37,2013-06-02 04:11:00,
2013-06-02 00:16:00,74.4,65.2,29.40,West,267,6.9,6.9,73,0.00,CLR,,0.00,WeatherDisplay:10.37,2013-06-02 04:16:00,
2013-06-02 00:21:00,74.2,65.0,29.40,SW,223,6.9,6.9,73,0.00,CLR,,0.00,WeatherDisplay:10.37,2013-06-02 04:21:00,
2013-06-02 00:26:00,74.2,65.0,29.40,SW,233,9.2,9.2,73,0.00,CLR,,0.00,WeatherDisplay:10.37,2013-06-02 04:26:00,
2013-06-02 00:31:00,74.0,64.8,29.40,WSW,258,3.5,3.5,73,0.00,CLR,,0.00,WeatherDisplay:10.37,2013-06-02 04:31:00,
2013-06-02 00:36:00,73.9,64.7,29.40,WSW,239,6.9,6.9,73,0.00,CLR,,0.00,WeatherDisplay:10.37,2013-06-02 04:36:00,
2013-06-02 00:41:00,73.7,64.5,29.39,SW,232,0.0,0.3,73,0.00,CLR,,0.00,WeatherDisplay:10.37,2013-06-02 04:41:00,
2013-06-02 00:46:00,73.5,64.3,29.39,WSW,237,4.6,4.6,73,0.00,CLR,,0.00,WeatherDisplay:10.37,2013-06-02 04:46:00,
2013-06-02 00:51:00,73.5,64.3,29.39,SW,226,10.4,10.4,73,0.00,CLR,,0.00,WeatherDisplay:10.37,2013-06-02 04:51:00,
2013-06-02 00:56:00,73.3,64.1,29.40,SSW,203,6.9,6.9,73,0.00,CLR,,0.00,WeatherDisplay:10.37,2013-06-02 04:56:00,
2013-06-02 01:01:00,73.3,64.1,29.40,SW,220,11.5,11.5,73,0.00,CLR,,0.00,WeatherDisplay:10.37,2013-06-02 05:01:00,
2013-06-02 01:06:00,73.3,64.1,29.40,SW,234,6.0,6.0,73,0.00,CLR,,0.00,WeatherDisplay:10.37,2013-06-02 05:06:00,
2013-06-02 01:11:00,73.2,64.0,29.40,West,280,6.9,6.9,73,0.00,CLR,,0.00,WeatherDisplay:10.37,2013-06-02 05:11:00,
2013-06-02 01:16:00,73.2,64.0,29.40,WSW,257,8.1,8.1,73,0.00,CLR,,0.00,WeatherDisplay:10.37,2013-06-02 05:16:00,
2013-06-02 01:21:00,73.2,64.0,29.40,WSW,248,9.2,9.2,73,0.00,CLR,,0.00,WeatherDisplay:10.37,2013-06-02 05:21:00,
2013-06-02 01:26:00,73.0,64.2,29.39,SSW,212,1.1,1.1,74,0.00,CLR,,0.00,WeatherDisplay:10.37,2013-06-02 05:26:00,
2013-06-02 01:31:00,72.8,64.0,29.39,SW,215,5.8,5.8,74,0.00,CLR,,0.00,WeatherDisplay:10.37,2013-06-02 05:31:00,
2013-06-02 01:36:00,72.7,63.9,29.39,WSW,237,10.4,10.4,74,0.00,CLR,,0.00,WeatherDisplay:10.37,2013-06-02 05:36:00,
2013-06-02 01:41:00,72.7,63.9,29.39,WSW,246,11.5,11.5,74,0.00,CLR,,0.00,WeatherDisplay:10.37,2013-06-02 05:41:00,
2013-06-02 01:46:00,72.7,63.9,29.39,SSW,210,9.2,9.2,74,0.00,CLR,,0.00,WeatherDisplay:10.37,2013-06-02 05:46:00,
2013-06-02 01:51:00,72.5,63.7,29.39,West,263,8.0,8.0,74,0.00,CLR,,0.00,WeatherDisplay:10.37,2013-06-02 05:51:00,
2013-06-02 01:56:00,72.5,63.7,29.38,West,265,8.1,8.1,74,0.00,CLR,,0.00,WeatherDisplay:10.37,2013-06-02 05:56:00,
2013-06-02 02:01:00,72.3,63.5,29.38,SW,236,6.9,6.9,74,0.00,CLR,,0.00,WeatherDisplay:10.37,2013-06-02 06:01:00,
2013-06-02 02:06:00,72.1,63.7,29.38,SW,217,4.6,4.6,75,0.00,CLR,,0.00,WeatherDisplay:10.37,2013-06-02 06:06:00,
2013-06-02 02:11:00,72.0,63.6,29.38,WSW,241,4.6,4.6,75,0.00,CLR,,0.00,WeatherDisplay:10.37,2013-06-02 06:11:00,
2013-06-02 02:16:00,71.8,63.8,29.38,SW,217,5.8,5.8,76,0.00,CLR,,0.00,WeatherDisplay:10.37,2013-06-02 06:16:00,
2013-06-02 02:21:00,71.6,63.6,29.38,West,271,5.8,5.8,76,0.00,CLR,,0.00,WeatherDisplay:10.37,2013-06-02 06:21:00,
2013-06-02 02:26:00,71.5,63.5,29.38,WSW,248,2.3,2.3,76,0.00,CLR,,0.00,WeatherDisplay:10.37,2013-06-02 06:26:00,
2013-06-02 02:31:00,71.5,63.5,29.38,WSW,244,6.9,6.9,76,0.00,CLR,,0.00,WeatherDisplay:10.37,2013-06-02 06:31:00,
2013-06-02 02:36:00,71.3,63.7,29.38,SSW,208,5.8,5.8,77,0.00,CLR,,0.00,WeatherDisplay:10.37,2013-06-02 06:36:00,
2013-06-02 02:41:00,71.3,63.7,29.37,SW,220,5.8,5.8,77,0.00,CLR,,0.00,WeatherDisplay:10.37,2013-06-02 06:41:00,
2013-06-02 02:46:00,71.1,63.5,29.37,SW,219,3.5,3.5,77,0.00,CLR,,0.00,WeatherDisplay:10.37,2013-06-02 06:46:00,
2013-06-02 02:51:00,70.9,63.7,29.37,SW,234,5.8,5.8,78,0.00,CLR,,0.00,WeatherDisplay:10.37,2013-06-02 06:51:00,
2013-06-02 02:56:00,70.9,63.3,29.37,SSW,192,4.6,4.6,77,0.00,CLR,,0.00,WeatherDisplay:10.37,2013-06-02 06:56:00,
2013-06-02 03:01:00,70.8,63.6,29.37,WSW,244,2.3,2.3,78,0.00,CLR,,0.00,WeatherDisplay:10.37,2013-06-02 07:01:00,
2013-06-02 03:06:00,70.6,63.8,29.37,WSW,237,1.1,1.1,79,0.00,CLR,,0.00,WeatherDisplay:10.37,2013-06-02 07:06:00,
2013-06-02 03:11:00,70.4,63.6,29.36,SSW,209,0.0,0.6,79,0.00,CLR,,0.00,WeatherDisplay:10.37,2013-06-02 07:11:00,
2013-06-02 03:16:00,70.3,63.8,29.36,SW,215,4.6,4.6,80,0.00,CLR,,0.00,WeatherDisplay:10.37,2013-06-02 07:16:00,
2013-06-02 03:21:00,70.1,63.6,29.36,SW,216,3.0,3.0,80,0.00,CLR,,0.00,WeatherDisplay:10.37,2013-06-02 07:21:00,
2013-06-02 03:26:00,70.1,63.6,29.35,SW,230,1.1,1.1,80,0.00,CLR,,0.00,WeatherDisplay:10.37,2013-06-02 07:26:00,
2013-06-02 03:31:00,69.9,63.8,29.35,SW,230,3.5,0.0,81,0.00,CLR,,0.00,WeatherDisplay:10.37,2013-06-02 07:31:00,
2013-06-02 03:36:00,69.9,63.8,29.35,West,261,3.5,3.5,81,0.00,CLR,,0.00,WeatherDisplay:10.37,2013-06-02 07:36:00,
2013-06-02 03:41:00,69.8,63.7,29.35,SW,230,5.8,5.8,81,0.00,CLR,,0.00,WeatherDisplay:10.37,2013-06-02 07:41:00,
2013-06-02 03:46:00,69.8,63.7,29.35,SW,232,0.0,0.0,81,0.00,CLR,,0.00,WeatherDisplay:10.37,2013-06-02 07:46:00,
2013-06-02 03:51:00,69.6,63.9,29.35,SW,217,0.0,0.0,82,0.00,CLR,,0.00,WeatherDisplay:10.37,2013-06-02 07:51:00,
2013-06-02 03:56:00,69.4,63.7,29.35,WSW,251,0.0,1.4,82,0.00,CLR,,0.00,WeatherDisplay:10.37,2013-06-02 07:56:00,
2013-06-02 04:01:00,69.4,64.0,29.35,SW,224,4.6,4.6,83,0.00,CLR,,0.00,WeatherDisplay:10.37,2013-06-02 08:01:00,
2013-06-02 04:06:00,69.4,64.0,29.35,WSW,241,4.6,4.6,83,0.00,CLR,,0.00,WeatherDisplay:10.37,2013-06-02 08:06:00,
2013-06-02 04:11:00,69.4,64.0,29.35,WSW,243,6.9,6.9,83,0.00,CLR,,0.00,WeatherDisplay:10.37,2013-06-02 08:11:00,
2013-06-02 04:16:00,69.3,63.9,29.35,West,263,3.5,3.5,83,0.00,CLR,,0.00,WeatherDisplay:10.37,2013-06-02 08:16:00,
2013-06-02 04:21:00,69.3,63.9,29.35,WSW,240,5.8,5.8,83,0.00,CLR,,0.00,WeatherDisplay:10.37,2013-06-02 08:21:00,
2013-06-02 04:26:00,69.1,63.7,29.35,WSW,248,6.9,6.9,83,0.00,CLR,,0.00,WeatherDisplay:10.37,2013-06-02 08:26:00,
2013-06-02 04:31:00,69.1,63.7,29.35,SW,216,6.9,6.9,83,0.00,CLR,,0.00,WeatherDisplay:10.37,2013-06-02 08:31:00,
2013-06-02 04:36:00,69.1,63.7,29.35,SW,227,4.0,4.0,83,0.00,CLR,,0.00,WeatherDisplay:10.37,2013-06-02 08:36:00,
2013-06-02 04:41:00,68.9,63.9,29.35,SW,224,3.5,3.5,84,0.00,CLR,,0.00,WeatherDisplay:10.37,2013-06-02 08:41:00,
2013-06-02 04:46:00,68.8,63.8,29.35,SSW,213,2.3,2.3,84,0.00,CLR,,0.00,WeatherDisplay:10.37,2013-06-02 08:46:00,
2013-06-02 04:52:00,68.6,63.9,29.35,SSW,210,0.0,0.0,85,0.00,CLR,,0.00,WeatherDisplay:10.37,2013-06-02 08:52:00,
2013-06-02 04:57:00,68.6,63.9,29.34,SSW,199,3.5,3.5,85,0.00,CLR,,0.00,WeatherDisplay:10.37,2013-06-02 08:57:00,
2013-06-02 05:02:00,68.4,63.7,29.34,SW,215,3.5,3.5,85,0.00,CLR,,0.00,WeatherDisplay:10.37,2013-06-02 09:02:00,
2013-06-02 05:07:00,68.4,64.0,29.34,SW,229,8.1,8.1,86,0.00,CLR,,0.00,WeatherDisplay:10.37,2013-06-02 09:07:00,
2013-06-02 05:12:00,68.6,64.2,29.34,SW,236,6.9,6.9,86,0.00,CLR,,0.00,WeatherDisplay:10.37,2013-06-02 09:12:00,
2013-06-02 05:17:00,68.4,64.0,29.34,WSW,243,5.8,5.8,86,0.00,CLR,,0.00,WeatherDisplay:10.37,2013-06-02 09:17:00,
2013-06-02 05:22:00,68.4,64.0,29.34,WSW,253,6.0,6.0,86,0.00,CLR,,0.00,WeatherDisplay:10.37,2013-06-02 09:22:00,
2013-06-02 05:27:00,68.4,64.0,29.34,WSW,241,10.4,10.4,86,0.00,CLR,,0.00,WeatherDisplay:10.37,2013-06-02 09:27:00,
2013-06-02 05:32:00,68.3,63.9,29.34,WSW,241,2.3,2.3,86,0.00,CLR,,0.00,WeatherDisplay:10.37,2013-06-02 09:32:00,
2013-06-02 05:37:00,68.1,64.1,29.34,WSW,257,6.9,6.9,87,0.00,CLR,,0.00,WeatherDisplay:10.37,2013-06-02 09:37:00,
2013-06-02 05:42:00,68.1,64.1,29.34,SW,215,4.6,4.6,87,0.00,CLR,,0.00,WeatherDisplay:10.37,2013-06-02 09:42:00,
2013-06-02 05:47:00,68.1,64.4,29.34,WSW,239,4.6,4.6,88,0.00,CLR,,0.00,WeatherDisplay:10.37,2013-06-02 09:47:00,
2013-06-02 05:52:00,68.1,64.4,29.34,WSW,239,5.8,5.8,88,0.00,CLR,,0.00,WeatherDisplay:10.37,2013-06-02 09:52:00,
2013-06-02 05:57:00,68.1,64.4,29.35,SW,229,5.8,5.8,88,0.00,CLR,,0.00,WeatherDisplay:10.37,2013-06-02 09:57:00,
2013-06-02 06:02:00,67.9,64.2,29.35,SW,230,5.8,5.8,88,0.00,CLR,,0.00,WeatherDisplay:10.37,2013-06-02 10:02:00,
2013-06-02 06:07:00,67.9,64.5,29.35,SW,229,3.5,3.5,89,0.00,CLR,,0.00,WeatherDisplay:10.37,2013-06-02 10:07:00,
2013-06-02 06:12:00,67.9,64.5,29.36,WSW,239,7.0,7.0,89,0.00,CLR,,0.00,WeatherDisplay:10.37,2013-06-02 10:12:00,
2013-06-02 06:17:00,67.8,64.4,29.36,WSW,243,4.6,4.6,89,0.00,CLR,,0.00,WeatherDisplay:10.37,2013-06-02 10:17:00,
2013-06-02 06:22:00,67.8,64.8,29.36,SW,215,6.9,6.9,90,0.00,CLR,,0.00,WeatherDisplay:10.37,2013-06-02 10:22:00,
2013-06-02 06:27:00,67.9,64.9,29.37,SW,236,5.8,5.8,90,0.00,CLR,,0.00,WeatherDisplay:10.37,2013-06-02 10:27:00,
2013-06-02 06:32:00,68.1,65.1,29.37,SW,230,3.5,0.0,90,0.00,CLR,,0.00,WeatherDisplay:10.37,2013-06-02 10:32:00,
2013-06-02 06:37:00,68.1,65.1,29.37,South,171,3.5,3.5,90,0.00,CLR,,0.00,WeatherDisplay:10.37,2013-06-02 10:37:00,
2013-06-02 06:42:00,68.3,65.3,29.37,WSW,246,5.8,5.8,90,0.00,CLR,,0.00,WeatherDisplay:10.37,2013-06-02 10:42:00,
2013-06-02 06:47:00,68.6,65.5,29.37,SW,234,4.6,4.6,90,0.00,CLR,,0.00,WeatherDisplay:10.37,2013-06-02 10:47:00,
2013-06-02 06:52:00,68.8,65.4,29.37,SW,233,11.5,11.5,89,0.00,CLR,,0.00,WeatherDisplay:10.37,2013-06-02 10:52:00,
2013-06-02 06:57:00,68.9,65.5,29.37,SW,234,8.1,8.1,89,0.00,CLR,,0.00,WeatherDisplay:10.37,2013-06-02 10:57:00,
2013-06-02 07:02:00,69.1,65.7,29.37,WSW,241,6.9,6.9,89,0.00,CLR,,0.00,WeatherDisplay:10.37,2013-06-02 11:02:00,
2013-06-02 07:07:00,69.1,65.7,29.37,WSW,237,11.5,11.5,89,0.00,CLR,,0.00,WeatherDisplay:10.37,2013-06-02 11:07:00,
2013-06-02 07:12:00,69.3,65.9,29.38,West,277,10.4,10.4,89,0.00,CLR,,0.00,WeatherDisplay:10.37,2013-06-02 11:12:00,
2013-06-02 07:17:00,69.3,65.9,29.38,SW,215,10.4,10.4,89,0.00,CLR,,0.00,WeatherDisplay:10.37,2013-06-02 11:17:00,
2013-06-02 07:22:00,69.3,65.9,29.38,WSW,250,10.4,10.4,89,0.00,CLR,,0.00,WeatherDisplay:10.37,2013-06-02 11:22:00,
2013-06-02 07:27:00,69.4,66.0,29.37,WSW,246,3.5,4.3,89,0.00,CLR,,0.00,WeatherDisplay:10.37,2013-06-02 11:27:00,
2013-06-02 07:32:00,69.6,65.9,29.37,WSW,237,7.0,7.0,88,0.00,CLR,,0.00,WeatherDisplay:10.37,2013-06-02 11:32:00,
2013-06-02 07:37:00,69.6,65.6,29.37,SW,229,10.4,10.4,87,0.00,CLR,,0.00,WeatherDisplay:10.37,2013-06-02 11:37:00,
2013-06-02 07:42:00,69.8,65.4,29.37,SSW,202,8.1,8.1,86,0.00,CLR,,0.00,WeatherDisplay:10.37,2013-06-02 11:42:00,
2013-06-02 07:47:00,69.9,65.5,29.37,SSW,209,11.5,11.5,86,0.00,CLR,,0.00,WeatherDisplay:10.37,2013-06-02 11:47:00,
2013-06-02 07:52:00,70.1,65.4,29.37,SW,232,9.2,9.2,85,0.00,CLR,,0.00,WeatherDisplay:10.37,2013-06-02 11:52:00,
2013-06-02 07:57:00,70.4,65.7,29.37,SW,232,6.9,6.9,85,0.00,CLR,,0.00,WeatherDisplay:10.37,2013-06-02 11:57:00,
2013-06-02 08:02:00,70.6,65.5,29.37,WSW,247,6.9,6.9,84,0.00,CLR,,0.00,WeatherDisplay:10.37,2013-06-02 12:02:00,
2013-06-02 08:07:00,70.8,65.7,29.37,West,261,11.5,11.5,84,0.00,CLR,,0.00,WeatherDisplay:10.37,2013-06-02 12:07:00,
2013-06-02 08:12:00,70.9,65.5,29.37,West,261,5.8,5.8,83,0.00,CLR,,0.00,WeatherDisplay:10.37,2013-06-02 12:12:00,
2013-06-02 08:17:00,71.3,65.9,29.37,WSW,241,11.5,11.5,83,0.00,CLR,,0.00,WeatherDisplay:10.37,2013-06-02 12:17:00,
2013-06-02 08:22:00,71.5,66.1,29.37,WSW,248,11.5,11.5,83,0.00,CLR,,0.00,WeatherDisplay:10.37,2013-06-02 12:22:00,
2013-06-02 08:27:00,71.6,65.5,29.37,SW,226,12.7,12.7,81,0.00,CLR,,0.00,WeatherDisplay:10.37,2013-06-02 12:27:00,
2013-06-02 08:32:00,71.8,65.7,29.37,SW,215,11.5,11.5,81,0.00,CLR,,0.00,WeatherDisplay:10.37,2013-06-02 12:32:00,
2013-06-02 08:37:00,72.1,65.6,29.37,WSW,246,13.8,13.8,80,0.00,CLR,,0.00,WeatherDisplay:10.37,2013-06-02 12:37:00,
2013-06-02 08:42:00,72.1,65.2,29.38,SW,230,12.7,12.7,79,0.00,CLR,,0.00,WeatherDisplay:10.37,2013-06-02 12:42:00,
2013-06-02 08:47:00,72.3,65.4,29.38,WSW,244,9.2,9.2,79,0.00,CLR,,0.00,WeatherDisplay:10.37,2013-06-02 12:47:00,
2013-06-02 08:52:00,72.5,65.2,29.38,SW,215,13.8,13.8,78,0.00,CLR,,0.00,WeatherDisplay:10.37,2013-06-02 12:52:00,
2013-06-02 08:57:00,72.7,65.4,29.38,WSW,246,11.5,11.5,78,0.00,CLR,,0.00,WeatherDisplay:10.37,2013-06-02 12:57:00,
2013-06-02 09:02:00,72.8,65.5,29.38,West,278,9.2,9.2,78,0.00,CLR,,0.00,WeatherDisplay:10.37,2013-06-02 13:02:00,
2013-06-02 09:07:00,72.8,65.9,29.38,SW,232,5.8,5.8,79,0.00,CLR,,0.00,WeatherDisplay:10.37,2013-06-02 13:07:00,
2013-06-02 09:12:00,73.0,65.7,29.38,WSW,253,11.5,11.5,78,0.00,CLR,,0.00,WeatherDisplay:10.37,2013-06-02 13:12:00,
2013-06-02 09:17:00,72.8,65.2,29.38,SW,220,8.1,8.1,77,0.00,CLR,,0.00,WeatherDisplay:10.37,2013-06-02 13:17:00,
2013-06-02 09:22:00,73.0,65.7,29.38,SW,223,12.7,12.7,78,0.00,CLR,,0.00,WeatherDisplay:10.37,2013-06-02 13:22:00,
2013-06-02 09:27:00,73.2,65.2,29.37,WSW,258,4.6,4.6,76,0.00,CLR,,0.00,WeatherDisplay:10.37,2013-06-02 13:27:00,
2013-06-02 09:32:00,73.7,64.9,29.37,SSW,209,11.5,11.5,74,0.00,CLR,,0.00,WeatherDisplay:10.37,2013-06-02 13:32:00,
2013-06-02 09:37:00,73.9,65.5,29.37,SW,233,9.2,9.2,75,0.00,CLR,,0.00,WeatherDisplay:10.37,2013-06-02 13:37:00,
2013-06-02 09:42:00,74.4,65.6,29.36,WSW,251,4.6,4.6,74,0.00,CLR,,0.00,WeatherDisplay:10.37,2013-06-02 13:42:00,
2013-06-02 09:47:00,74.6,65.8,29.36,SW,220,8.1,8.1,74,0.00,CLR,,0.00,WeatherDisplay:10.37,2013-06-02 13:47:00,
2013-06-02 09:52:00,74.6,65.4,29.36,WSW,240,16.1,16.1,73,0.00,CLR,,0.00,WeatherDisplay:10.37,2013-06-02 13:52:00,
2013-06-02 09:57:00,74.9,65.3,29.36,WSW,256,12.7,12.7,72,0.00,CLR,,0.00,WeatherDisplay:10.37,2013-06-02 13:57:00,
2013-06-02 10:02:00,75.1,65.5,29.36,WSW,250,17.3,17.3,72,0.00,CLR,,0.00,WeatherDisplay:10.37,2013-06-02 14:02:00,
2013-06-02 10:07:00,75.1,65.5,29.36,SW,230,13.8,13.8,72,0.00,CLR,,0.00,WeatherDisplay:10.37,2013-06-02 14:07:00,
2013-06-02 10:12:00,75.3,65.2,29.36,SSW,200,11.5,11.5,71,0.00,CLR,,0.00,WeatherDisplay:10.37,2013-06-02 14:12:00,
2013-06-02 10:17:00,75.8,66.1,29.36,WSW,243,11.5,11.5,72,0.00,CLR,,0.00,WeatherDisplay:10.37,2013-06-02 14:17:00,
2013-06-02 10:22:00,76.3,65.8,29.36,WSW,256,10.4,10.4,70,0.00,CLR,,0.00,WeatherDisplay:10.37,2013-06-02 14:22:00,
2013-06-02 10:27:00,76.3,65.0,29.36,WNW,282,18.4,18.4,68,0.00,CLR,,0.00,WeatherDisplay:10.37,2013-06-02 14:27:00,
2013-06-02 10:32:00,76.1,65.6,29.36,SSW,212,3.5,3.5,70,0.00,CLR,,0.00,WeatherDisplay:10.37,2013-06-02 14:32:00,
2013-06-02 10:37:00,76.8,66.7,29.36,WSW,239,10.4,10.4,71,0.00,CLR,,0.00,WeatherDisplay:10.37,2013-06-02 14:37:00,
2013-06-02 10:42:00,76.5,66.0,29.36,SW,234,5.8,5.8,70,0.00,CLR,,0.00,WeatherDisplay:10.37,2013-06-02 14:42:00,
2013-06-02 10:47:00,76.7,66.2,29.36,WSW,254,8.1,8.1,70,0.00,CLR,,0.00,WeatherDisplay:10.37,2013-06-02 14:47:00,
2013-06-02 10:52:00,77.0,65.6,29.36,WSW,246,3.5,3.5,68,0.00,CLR,,0.00,WeatherDisplay:10.37,2013-06-02 14:52:00,
2013-06-02 10:57:00,77.4,66.0,29.36,WSW,254,4.6,4.6,68,0.00,CLR,,0.00,WeatherDisplay:10.37,2013-06-02 14:57:00,
2013-06-02 11:02:00,77.7,66.3,29.36,WSW,237,12.7,12.7,68,0.00,CLR,,0.00,WeatherDisplay:10.37,2013-06-02 15:02:00,
2013-06-02 11:07:00,77.9,66.1,29.36,SW,227,3.5,3.5,67,0.00,CLR,,0.00,WeatherDisplay:10.37,2013-06-02 15:07:00,
2013-06-02 11:12:00,78.3,66.0,29.36,South,185,10.4,10.4,66,0.00,CLR,,0.00,WeatherDisplay:10.37,2013-06-02 15:12:00,
2013-06-02 11:17:00,78.6,66.7,29.36,SSW,199,4.6,4.6,67,0.00,CLR,,0.00,WeatherDisplay:10.37,2013-06-02 15:17:00,
2013-06-02 11:22:00,78.6,66.3,29.36,WSW,251,4.6,4.6,66,0.00,CLR,,0.00,WeatherDisplay:10.37,2013-06-02 15:22:00,
2013-06-02 11:27:00,79.0,65.8,29.35,SW,232,3.5,3.5,64,0.00,CLR,,0.00,WeatherDisplay:10.37,2013-06-02 15:27:00,
2013-06-02 11:32:00,78.8,64.7,29.35,WSW,240,8.1,8.1,62,0.00,CLR,,0.00,WeatherDisplay:10.37,2013-06-02 15:32:00,
2013-06-02 11:37:00,78.8,64.7,29.35,WSW,247,11.5,11.5,62,0.00,CLR,,0.00,WeatherDisplay:10.37,2013-06-02 15:37:00,
2013-06-02 11:42:00,79.0,65.3,29.35,WSW,239,5.0,5.0,63,0.00,CLR,,0.00,WeatherDisplay:10.37,2013-06-02 15:42:00,
2013-06-02 11:47:00,79.4,64.8,29.35,SW,224,12.7,12.7,61,0.00,CLR,,0.00,WeatherDisplay:10.37,2013-06-02 15:47:00,
2013-06-02 11:52:00,79.4,65.2,29.35,SW,230,5.8,5.8,62,0.00,CLR,,0.00,WeatherDisplay:10.37,2013-06-02 15:52:00,
2013-06-02 11:57:00,79.8,65.6,29.35,WSW,258,8.1,8.1,62,0.00,CLR,,0.00,WeatherDisplay:10.37,2013-06-02 15:57:00,
2013-06-02 12:02:00,79.9,64.8,29.35,West,260,10.4,10.4,60,0.00,CLR,,0.00,WeatherDisplay:10.37,2013-06-02 16:02:00,
2013-06-02 12:07:00,80.1,65.0,29.35,West,268,4.6,4.6,60,0.00,CLR,,0.00,WeatherDisplay:10.37,2013-06-02 16:07:00,
2013-06-02 12:12:00,80.5,64.9,29.36,SW,232,8.1,8.1,59,0.00,CLR,,0.00,WeatherDisplay:10.37,2013-06-02 16:12:00,
2013-06-02 12:17:00,80.1,65.0,29.36,West,281,10.4,10.4,60,0.00,CLR,,0.00,WeatherDisplay:10.37,2013-06-02 16:17:00,
2013-06-02 12:22:00,79.9,66.2,29.36,SSW,206,2.3,0.0,63,0.00,CLR,,0.00,WeatherDisplay:10.37,2013-06-02 16:22:00,
2013-06-02 12:27:00,80.5,64.9,29.35,South,185,10.4,10.4,59,0.00,CLR,,0.00,WeatherDisplay:10.37,2013-06-02 16:27:00,
2013-06-02 12:32:00,81.2,65.5,29.35,SSW,208,6.9,6.9,59,0.00,CLR,,0.00,WeatherDisplay:10.37,2013-06-02 16:32:00,
2013-06-02 12:37:00,81.1,65.4,29.35,SW,227,2.3,2.3,59,0.00,CLR,,0.00,WeatherDisplay:10.37,2013-06-02 16:37:00,
2013-06-02 12:42:00,80.9,65.2,29.35,WSW,251,11.5,11.5,59,0.00,CLR,,0.00,WeatherDisplay:10.37,2013-06-02 16:42:00,
2013-06-02 12:47:00,81.2,66.0,29.35,SSW,210,11.5,11.5,60,0.00,CLR,,0.00,WeatherDisplay:10.37,2013-06-02 16:47:00,
2013-06-02 12:52:00,81.2,65.0,29.35,SW,236,7.0,7.0,58,0.00,CLR,,0.00,WeatherDisplay:10.37,2013-06-02 16:52:00,
2013-06-02 12:57:00,81.4,64.7,29.35,WSW,248,10.4,10.4,57,0.00,CLR,,0.00,WeatherDisplay:10.37,2013-06-02 16:57:00,
2013-06-02 13:02:00,81.1,66.4,29.35,SSE,151,6.9,6.9,61,0.00,CLR,,0.00,WeatherDisplay:10.37,2013-06-02 17:02:00,
2013-06-02 13:07:00,81.6,65.9,29.35,SW,219,6.9,6.9,59,0.00,CLR,,0.00,WeatherDisplay:10.37,2013-06-02 17:07:00,
2013-06-02 13:12:00,81.6,66.4,29.35,SE,130,5.8,5.8,60,0.00,CLR,,0.00,WeatherDisplay:10.37,2013-06-02 17:12:00,
2013-06-02 13:17:00,82.2,66.9,29.35,SSW,195,3.5,3.5,60,0.00,CLR,,0.00,WeatherDisplay:10.37,2013-06-02 17:17:00,
2013-06-02 13:22:00,82.8,66.0,29.35,ENE,75,6.9,6.9,57,0.00,CLR,,0.00,WeatherDisplay:10.37,2013-06-02 17:22:00,
2013-06-02 13:27:00,82.6,65.3,29.34,SW,215,1.1,1.1,56,0.00,CLR,,0.00,WeatherDisplay:10.37,2013-06-02 17:27:00,
2013-06-02 13:32:00,83.0,65.2,29.34,West,270,6.9,6.9,55,0.00,CLR,,0.00,WeatherDisplay:10.37,2013-06-02 17:32:00,
2013-06-02 13:37:00,83.0,65.2,29.34,SW,226,3.5,3.5,55,0.00,CLR,,0.00,WeatherDisplay:10.37,2013-06-02 17:37:00,
2013-06-02 13:42:00,82.8,65.0,29.34,SSE,158,6.9,6.9,55,0.00,CLR,,0.00,WeatherDisplay:10.37,2013-06-02 17:42:00,
2013-06-02 13:47:00,83.0,65.7,29.34,WSW,253,11.5,11.5,56,0.00,CLR,,0.00,WeatherDisplay:10.37,2013-06-02 17:47:00,
2013-06-02 13:52:00,82.8,65.5,29.34,NW,305,9.2,9.2,56,0.00,CLR,,0.00,WeatherDisplay:10.37,2013-06-02 17:52:00,
2013-06-02 13:57:00,82.6,65.3,29.34,WSW,246,12.7,12.7,56,0.00,CLR,,0.00,WeatherDisplay:10.37,2013-06-02 17:57:00,
2013-06-02 14:02:00,82.4,65.6,29.34,SW,220,6.9,6.9,57,0.00,CLR,,0.00,WeatherDisplay:10.37,2013-06-02 18:02:00,
2013-06-02 14:07:00,82.6,64.8,29.34,SW,223,10.4,10.4,55,0.00,CLR,,0.00,WeatherDisplay:10.37,2013-06-02 18:07:00,
2013-06-02 14:12:00,82.6,63.7,29.33,WNW,294,13.8,13.8,53,0.00,CLR,,0.00,WeatherDisplay:10.37,2013-06-02 18:12:00,
2013-06-02 14:17:00,82.6,64.8,29.33,WNW,287,6.9,6.9,55,0.00,CLR,,0.00,WeatherDisplay:10.37,2013-06-02 18:17:00,
2013-06-02 14:22:00,83.0,64.6,29.33,SW,226,10.4,10.4,54,0.00,CLR,,0.00,WeatherDisplay:10.37,2013-06-02 18:22:00,
2013-06-02 14:27:00,82.8,65.0,29.33,SW,224,12.7,12.7,55,0.00,CLR,,0.00,WeatherDisplay:10.37,2013-06-02 18:27:00,
2013-06-02 14:32:00,82.8,65.0,29.33,WSW,244,11.5,11.5,55,0.00,CLR,,0.00,WeatherDisplay:10.37,2013-06-02 18:32:00,
2013-06-02 14:37:00,82.8,65.0,29.33,WSW,244,11.5,11.5,55,0.00,CLR,,0.00,WeatherDisplay:10.37,2013-06-02 18:37:00,
2013-06-02 14:42:00,83.0,65.2,29.33,SW,233,2.3,0.0,55,0.00,CLR,,0.00,WeatherDisplay:10.37,2013-06-02 18:42:00,
2013-06-02 14:47:00,83.4,64.5,29.33,West,280,13.8,13.8,53,0.00,CLR,,0.00,WeatherDisplay:10.37,2013-06-02 18:47:00,
2013-06-02 14:52:00,83.8,66.4,29.33,West,280,6.9,6.9,56,0.00,CLR,,0.00,WeatherDisplay:10.37,2013-06-02 18:52:00,
2013-06-02 14:57:00,83.8,65.4,29.33,WSW,243,5.8,5.8,54,0.00,CLR,,0.00,WeatherDisplay:10.37,2013-06-02 18:57:00,
2013-06-02 15:02:00,83.0,65.2,29.33,SSW,203,3.5,3.5,55,0.00,CLR,,0.00,WeatherDisplay:10.37,2013-06-02 19:02:00,
2013-06-02 15:07:00,82.4,65.6,29.33,SW,236,6.9,6.9,57,0.00,CLR,,0.00,WeatherDisplay:10.37,2013-06-02 19:07:00,
2013-06-02 15:12:00,82.2,66.4,29.32,SSW,203,2.3,0.0,59,0.00,CLR,,0.00,WeatherDisplay:10.37,2013-06-02 19:12:00,
2013-06-02 15:17:00,82.2,66.0,29.32,SW,227,8.1,8.1,58,0.00,CLR,,0.00,WeatherDisplay:10.37,2013-06-02 19:17:00,
2013-06-02 15:22:00,82.2,64.9,29.32,SSW,213,5.8,5.8,56,0.00,CLR,,0.00,WeatherDisplay:10.37,2013-06-02 19:22:00,
2013-06-02 15:27:00,82.8,66.0,29.31,West,261,1.1,2.2,57,0.00,CLR,,0.00,WeatherDisplay:10.37,2013-06-02 19:27:00,
2013-06-02 15:32:00,83.2,65.9,29.31,WSW,247,3.5,3.5,56,0.00,CLR,,0.00,WeatherDisplay:10.37,2013-06-02 19:32:00,
2013-06-02 15:37:00,83.8,64.3,29.31,SSW,193,9.2,9.2,52,0.00,CLR,,0.00,WeatherDisplay:10.37,2013-06-02 19:37:00,
2013-06-02 15:42:00,84.0,66.1,29.31,WSW,239,11.5,11.5,55,0.00,CLR,,0.00,WeatherDisplay:10.37,2013-06-02 19:42:00,
2013-06-02 15:47:00,84.1,65.7,29.31,SSE,164,3.5,3.5,54,0.00,CLR,,0.00,WeatherDisplay:10.37,2013-06-02 19:47:00,
2013-06-02 15:52:00,84.1,65.1,29.31,WSW,243,16.1,16.1,53,0.00,CLR,,0.00,WeatherDisplay:10.37,2013-06-02 19:52:00,
2013-06-02 15:57:00,84.0,66.1,29.30,West,263,3.5,3.5,55,0.00,CLR,,0.00,WeatherDisplay:10.37,2013-06-02 19:57:00,
2013-06-02 16:02:00,84.5,64.4,29.30,WSW,250,5.8,5.8,51,0.00,CLR,,0.00,WeatherDisplay:10.37,2013-06-02 20:02:00,
2013-06-02 16:07:00,84.0,65.0,29.30,WSW,243,8.1,8.1,53,0.00,CLR,,0.00,WeatherDisplay:10.37,2013-06-02 20:07:00,
2013-06-02 16:12:00,83.6,65.2,29.30,SSE,150,2.3,2.3,54,0.00,CLR,,0.00,WeatherDisplay:10.37,2013-06-02 20:12:00,
2013-06-02 16:17:00,83.4,65.0,29.30,West,278,5.8,0.0,54,0.00,CLR,,0.00,WeatherDisplay:10.37,2013-06-02 20:17:00,
2013-06-02 16:22:00,83.0,65.2,29.30,West,263,10.4,10.4,55,0.00,CLR,,0.00,WeatherDisplay:10.37,2013-06-02 20:22:00,
2013-06-02 16:28:00,83.0,65.2,29.29,SSW,212,6.9,6.9,55,0.00,CLR,,0.00,WeatherDisplay:10.37,2013-06-02 20:28:00,
2013-06-02 16:33:00,83.0,65.2,29.29,West,270,2.3,2.3,55,0.00,CLR,,0.00,WeatherDisplay:10.37,2013-06-02 20:33:00,
2013-06-02 16:38:00,83.0,65.2,29.29,WSW,237,0.0,3.1,55,0.00,CLR,,0.00,WeatherDisplay:10.37,2013-06-02 20:38:00,
2013-06-02 16:43:00,83.0,64.6,29.29,SW,223,3.5,3.5,54,0.00,CLR,,0.00,WeatherDisplay:10.37,2013-06-02 20:43:00,
2013-06-02 16:48:00,83.4,65.0,29.29,SW,229,1.1,0.0,54,0.00,CLR,,0.00,WeatherDisplay:10.37,2013-06-02 20:48:00,
2013-06-02 16:53:00,83.4,64.5,29.29,WSW,237,6.9,6.9,53,0.00,CLR,,0.00,WeatherDisplay:10.37,2013-06-02 20:53:00,
2013-06-02 16:58:00,83.6,65.2,29.28,SW,233,5.8,5.8,54,0.00,CLR,,0.00,WeatherDisplay:10.37,2013-06-02 20:58:00,
2013-06-02 17:03:00,83.4,65.0,29.28,ENE,68,0.0,0.2,54,0.00,CLR,,0.00,WeatherDisplay:10.37,2013-06-02 21:03:00,
2013-06-02 17:08:00,83.2,65.4,29.28,SSE,152,1.1,0.0,55,0.00,CLR,,0.00,WeatherDisplay:10.37,2013-06-02 21:08:00,
2013-06-02 17:13:00,83.2,65.4,29.28,WSW,258,4.6,0.0,55,0.00,CLR,,0.00,WeatherDisplay:10.37,2013-06-02 21:13:00,
2013-06-02 17:18:00,83.4,65.0,29.28,WSW,244,5.8,5.8,54,0.00,CLR,,0.00,WeatherDisplay:10.37,2013-06-02 21:18:00,
2013-06-02 17:23:00,83.2,64.8,29.28,WSW,254,6.9,6.9,54,0.00,CLR,,0.00,WeatherDisplay:10.37,2013-06-02 21:23:00,
2013-06-02 17:28:00,83.2,65.4,29.28,WSW,244,4.6,4.6,55,0.00,CLR,,0.00,WeatherDisplay:10.37,2013-06-02 21:28:00,
2013-06-02 17:33:00,83.2,64.8,29.28,SW,223,3.5,3.5,54,0.00,CLR,,0.00,WeatherDisplay:10.37,2013-06-02 21:33:00,
2013-06-02 17:38:00,83.2,65.9,29.28,SW,232,0.0,0.0,56,0.00,CLR,,0.00,WeatherDisplay:10.37,2013-06-02 21:38:00,
2013-06-02 17:43:00,83.0,65.2,29.27,SSW,200,2.3,2.3,55,0.00,CLR,,0.00,WeatherDisplay:10.37,2013-06-02 21:43:00,
2013-06-02 17:48:00,82.8,65.5,29.27,SSW,206,0.0,0.0,56,0.00,CLR,,0.00,WeatherDisplay:10.37,2013-06-02 21:48:00,
2013-06-02 17:53:00,82.8,65.5,29.27,WSW,239,0.0,0.0,56,0.00,CLR,,0.00,WeatherDisplay:10.37,2013-06-02 21:53:00,
2013-06-02 17:58:00,82.6,63.7,29.27,West,261,5.8,5.8,53,0.00,CLR,,0.00,WeatherDisplay:10.37,2013-06-02 21:58:00,
2013-06-02 18:03:00,82.6,65.3,29.27,South,185,0.0,0.0,56,0.00,CLR,,0.00,WeatherDisplay:10.37,2013-06-02 22:03:00,
2013-06-02 18:08:00,82.6,64.8,29.27,SW,216,0.0,0.2,55,0.00,CLR,,0.00,WeatherDisplay:10.37,2013-06-02 22:08:00,
2013-06-02 18:13:00,82.4,65.1,29.27,SW,219,0.0,0.0,56,0.00,CLR,,0.00,WeatherDisplay:10.37,2013-06-02 22:13:00,
2013-06-02 18:18:00,82.4,65.1,29.27,SW,219,0.0,0.0,56,0.00,CLR,,0.00,WeatherDisplay:10.37,2013-06-02 22:18:00,
2013-06-02 18:23:00,82.2,65.4,29.27,SW,219,0.0,0.0,57,0.00,CLR,,0.00,WeatherDisplay:10.37,2013-06-02 22:23:00,
2013-06-02 18:28:00,82.2,66.0,29.27,SW,219,0.0,0.0,58,0.00,CLR,,0.00,WeatherDisplay:10.37,2013-06-02 22:28:00,
2013-06-02 18:33:00,82.2,66.4,29.27,SW,219,0.0,0.0,59,0.00,CLR,,0.00,WeatherDisplay:10.37,2013-06-02 22:33:00,
2013-06-02 18:38:00,82.2,65.4,29.27,SW,219,0.0,0.0,57,0.00,CLR,,0.00,WeatherDisplay:10.37,2013-06-02 22:38:00,
2013-06-02 18:43:00,82.0,66.3,29.27,ENE,58,1.0,0.0,59,0.00,CLR,,0.00,WeatherDisplay:10.37,2013-06-02 22:43:00,
2013-06-02 18:48:00,81.6,66.4,29.27,ENE,58,0.0,0.0,60,0.00,CLR,,0.00,WeatherDisplay:10.37,2013-06-02 22:48:00,
2013-06-02 18:53:00,81.2,66.9,29.27,ENE,58,0.0,0.0,62,0.00,CLR,,0.00,WeatherDisplay:10.37,2013-06-02 22:53:00,
2013-06-02 18:58:00,81.1,66.4,29.27,ENE,58,0.0,0.0,61,0.00,CLR,,0.00,WeatherDisplay:10.37,2013-06-02 22:58:00,
2013-06-02 19:03:00,80.9,66.2,29.27,ENE,58,0.0,0.0,61,0.00,CLR,,0.00,WeatherDisplay:10.37,2013-06-02 23:03:00,
2013-06-02 19:08:00,80.5,66.3,29.27,ENE,58,0.0,0.0,62,0.00,CLR,,0.00,WeatherDisplay:10.37,2013-06-02 23:08:00,
2013-06-02 19:13:00,80.1,66.4,29.26,ENE,58,0.0,0.0,63,0.00,CLR,,0.00,WeatherDisplay:10.37,2013-06-02 23:13:00,
2013-06-02 19:18:00,79.9,67.1,29.26,ENE,58,0.0,0.0,65,0.00,CLR,,0.00,WeatherDisplay:10.37,2013-06-02 23:18:00,
2013-06-02 19:23:00,79.8,67.0,29.26,North,350,0.0,0.0,65,0.00,CLR,,0.00,WeatherDisplay:10.37,2013-06-02 23:23:00,
2013-06-02 19:28:00,79.6,66.3,29.27,NNW,333,0.0,0.0,64,0.00,CLR,,0.00,WeatherDisplay:10.37,2013-06-02 23:28:00,
2013-06-02 19:33:00,79.4,66.2,29.27,NNW,330,0.0,0.0,64,0.00,CLR,,0.00,WeatherDisplay:10.37,2013-06-02 23:33:00,
2013-06-02 19:38:00,79.4,66.2,29.27,NNW,330,0.0,0.0,64,0.00,CLR,,0.00,WeatherDisplay:10.37,2013-06-02 23:38:00,
2013-06-02 19:43:00,79.4,67.5,29.28,NNW,329,0.0,0.0,67,0.00,CLR,,0.00,WeatherDisplay:10.37,2013-06-02 23:43:00,
2013-06-02 19:48:00,79.4,67.9,29.28,NNW,329,0.0,0.0,68,0.00,CLR,,0.00,WeatherDisplay:10.37,2013-06-02 23:48:00,
2013-06-02 19:53:00,79.2,67.3,29.28,NNW,330,0.0,0.0,67,0.00,CLR,,0.00,WeatherDisplay:10.37,2013-06-02 23:53:00,
2013-06-02 19:58:00,78.6,67.2,29.28,NNW,330,0.0,0.0,68,0.00,CLR,,0.00,WeatherDisplay:10.37,2013-06-02 23:58:00,
2013-06-02 20:03:00,78.3,66.4,29.28,NNW,329,0.0,0.0,67,0.00,CLR,,0.00,WeatherDisplay:10.37,2013-06-03 00:03:00,
2013-06-02 20:08:00,77.9,66.5,29.28,NNW,330,0.0,0.0,68,0.00,CLR,,0.00,WeatherDisplay:10.37,2013-06-03 00:08:00,
2013-06-02 20:13:00,77.4,66.4,29.28,NNW,330,0.0,0.0,69,0.00,CLR,,0.00,WeatherDisplay:10.37,2013-06-03 00:13:00,
2013-06-02 20:18:00,77.2,66.7,29.28,NNW,330,0.0,0.0,70,0.00,CLR,,0.00,WeatherDisplay:10.37,2013-06-03 00:18:00,
2013-06-02 20:23:00,76.8,65.9,29.28,NNW,330,0.0,0.0,69,0.00,CLR,,0.00,WeatherDisplay:10.37,2013-06-03 00:23:00,
2013-06-02 20:28:00,76.8,65.4,29.28,NNW,330,0.0,0.0,68,0.00,CLR,,0.00,WeatherDisplay:10.37,2013-06-03 00:28:00,
2013-06-02 20:33:00,76.8,65.4,29.28,NNW,329,0.0,0.0,68,0.00,CLR,,0.00,WeatherDisplay:10.37,2013-06-03 00:33:00,
2013-06-02 20:38:00,76.8,65.9,29.28,NNW,329,0.0,0.0,69,0.00,CLR,,0.00,WeatherDisplay:10.37,2013-06-03 00:38:00,
2013-06-02 20:43:00,76.8,65.0,29.28,NNW,329,0.0,0.0,67,0.00,CLR,,0.00,WeatherDisplay:10.37,2013-06-03 00:43:00,
2013-06-02 20:48:00,76.8,65.0,29.28,NNW,329,0.0,0.0,67,0.00,CLR,,0.00,WeatherDisplay:10.37,2013-06-03 00:48:00,
2013-06-02 20:53:00,76.8,65.9,29.28,NNW,329,0.0,0.0,69,0.00,CLR,,0.00,WeatherDisplay:10.37,2013-06-03 00:53:00,
2013-06-02 20:58:00,76.7,66.2,29.29,NNW,329,0.0,0.0,70,0.00,CLR,,0.00,WeatherDisplay:10.37,2013-06-03 00:58:00,
2013-06-02 21:03:00,76.7,65.3,29.29,NNW,329,0.0,0.0,68,0.00,CLR,,0.00,WeatherDisplay:10.37,2013-06-03 01:03:00,
2013-06-02 21:08:00,76.7,64.9,29.29,NNW,329,0.0,0.0,67,0.00,CLR,,0.00,WeatherDisplay:10.37,2013-06-03 01:08:00,
2013-06-02 21:13:00,76.7,65.3,29.28,NNW,329,0.0,0.0,68,0.00,CLR,,0.00,WeatherDisplay:10.37,2013-06-03 01:13:00,
2013-06-02 21:18:00,76.7,65.3,29.28,NNW,329,0.0,0.0,68,0.00,CLR,,0.00,WeatherDisplay:10.37,2013-06-03 01:18:00,
2013-06-02 21:23:00,76.5,66.0,29.28,NNW,329,0.0,0.0,70,0.00,CLR,,0.00,WeatherDisplay:10.37,2013-06-03 01:23:00,
2013-06-02 21:28:00,76.5,66.4,29.28,NNW,329,0.0,0.0,71,0.00,CLR,,0.00,WeatherDisplay:10.37,2013-06-03 01:28:00,
2013-06-02 21:33:00,76.3,66.2,29.28,NNW,329,0.0,0.0,71,0.00,CLR,,0.00,WeatherDisplay:10.37,2013-06-03 01:33:00,
2013-06-02 21:38:00,76.0,65.9,29.28,North,3,0.0,0.0,71,0.00,CLR,,0.00,WeatherDisplay:10.37,2013-06-03 01:38:00,
2013-06-02 21:43:00,76.0,66.3,29.27,North,3,0.0,0.0,72,0.00,CLR,,0.00,WeatherDisplay:10.37,2013-06-03 01:43:00,
2013-06-02 21:48:00,76.1,66.0,29.27,WSW,258,1.1,1.1,71,0.00,CLR,,0.00,WeatherDisplay:10.37,2013-06-03 01:48:00,
2013-06-02 21:53:00,76.7,66.2,29.27,WSW,237,5.8,5.8,70,0.00,CLR,,0.00,WeatherDisplay:10.37,2013-06-03 01:53:00,
2013-06-02 21:58:00,77.2,66.2,29.27,WNW,282,5.8,5.8,69,0.00,CLR,,0.00,WeatherDisplay:10.37,2013-06-03 01:58:00,
2013-06-02 22:03:00,77.4,66.4,29.27,SW,217,1.1,0.0,69,0.00,CLR,,0.00,WeatherDisplay:10.37,2013-06-03 02:03:00,
2013-06-02 22:08:00,77.4,66.4,29.27,WSW,250,0.0,0.0,69,0.00,CLR,,0.00,WeatherDisplay:10.37,2013-06-03 02:08:00,
2013-06-02 22:13:00,77.4,66.4,29.28,WSW,250,0.0,0.0,69,0.00,CLR,,0.00,WeatherDisplay:10.37,2013-06-03 02:13:00,
2013-06-02 22:18:00,77.2,66.7,29.28,WSW,247,0.0,0.0,70,0.00,CLR,,0.00,WeatherDisplay:10.37,2013-06-03 02:18:00,
2013-06-02 22:23:00,77.2,66.7,29.28,WSW,247,0.0,0.0,70,0.00,CLR,,0.00,WeatherDisplay:10.37,2013-06-03 02:23:00,
2013-06-02 22:28:00,77.0,66.9,29.28,WSW,247,0.0,0.0,71,0.00,CLR,,0.00,WeatherDisplay:10.37,2013-06-03 02:28:00,
2013-06-02 22:33:00,76.8,66.7,29.28,WSW,247,0.0,0.0,71,0.00,CLR,,0.00,WeatherDisplay:10.37,2013-06-03 02:33:00,
2013-06-02 22:38:00,76.7,66.6,29.28,SSW,202,4.6,4.6,71,0.00,CLR,,0.00,WeatherDisplay:10.37,2013-06-03 02:38:00,
2013-06-02 22:43:00,76.5,66.8,29.30,SSW,213,8.1,8.1,72,0.00,CLR,,0.00,WeatherDisplay:10.37,2013-06-03 02:43:00,
2013-06-02 22:48:00,76.7,66.6,29.30,SW,229,5.8,5.8,71,0.00,CLR,,0.00,WeatherDisplay:10.37,2013-06-03 02:48:00,
2013-06-02 22:53:00,76.8,66.3,29.30,SSW,208,6.9,6.9,70,0.00,CLR,,0.00,WeatherDisplay:10.37,2013-06-03 02:53:00,
2013-06-02 22:58:00,76.8,66.3,29.31,WSW,250,2.3,2.3,70,0.00,CLR,,0.00,WeatherDisplay:10.37,2013-06-03 02:58:00,
2013-06-02 23:03:00,76.8,66.3,29.31,WSW,240,6.9,6.9,70,0.00,CLR,,0.00,WeatherDisplay:10.37,2013-06-03 03:03:00,
2013-06-02 23:08:00,76.8,66.3,29.31,SW,236,0.0,0.6,70,0.00,CLR,,0.00,WeatherDisplay:10.37,2013-06-03 03:08:00,
2013-06-02 23:13:00,76.8,66.3,29.31,SW,236,11.5,11.5,70,0.00,CLR,,0.00,WeatherDisplay:10.37,2013-06-03 03:13:00,
2013-06-02 23:18:00,76.8,66.7,29.31,SW,216,5.8,5.8,71,0.00,CLR,,0.00,WeatherDisplay:10.37,2013-06-03 03:18:00,
2013-06-02 23:23:00,76.7,67.0,29.31,SW,229,3.5,3.5,72,0.00,CLR,,0.00,WeatherDisplay:10.37,2013-06-03 03:23:00,
2013-06-02 23:28:00,76.5,66.8,29.31,South,178,8.1,8.1,72,0.00,CLR,,0.00,WeatherDisplay:10.37,2013-06-03 03:28:00,
2013-06-02 23:33:00,76.3,67.4,29.31,SW,230,3.5,3.5,74,0.00,CLR,,0.00,WeatherDisplay:10.37,2013-06-03 03:33:00,
2013-06-02 23:38:00,75.8,67.7,29.31,WSW,256,3.5,3.5,76,0.00,CLR,,0.00,WeatherDisplay:10.37,2013-06-03 03:38:00,
2013-06-02 23:43:00,75.1,68.1,29.32,SW,234,4.6,4.6,79,0.00,CLR,,0.00,WeatherDisplay:10.37,2013-06-03 03:43:00,
2013-06-02 23:48:00,74.4,68.5,29.32,SW,217,3.5,3.5,82,0.00,CLR,,0.00,WeatherDisplay:10.37,2013-06-03 03:48:00,
2013-06-02 23:53:00,73.7,68.6,29.32,SW,232,1.1,1.1,84,0.01,RA,,0.01,WeatherDisplay:10.37,2013-06-03 03:53:00,
2013-06-02 23:58:00,73.0,68.6,29.32,WSW,241,1.1,0.0,86,0.02,RA,,0.02,WeatherDisplay:10.37,2013-06-03 03:58:00,